Time;durP1;ratioP1;P1;durP2;ratioP2;P2;SDS_P1;SDS_P2;PMS_P1;PMS_P2;Temp;Humidity;BMP_temperature;BMP_pressure;BME280_temperature;BME280_humidity;BME280_pressure;Samples;Min_cycle;Max_cycle;Signal;HPM_P1;HPM_P2
2021/03/19 00:00:55;;;;;;;2.72;1.20;;;20.30;33.40;;;;;;5076295;28;20013;-59
2021/03/19 00:03:21;;;;;;;2.20;0.85;;;20.30;33.40;;;;;;5072082;28;20021;-60
2021/03/19 00:05:47;;;;;;;2.60;1.00;;;20.30;33.40;;;;;;5073157;28;20033;-60
2021/03/19 00:08:13;;;;;;;3.50;1.25;;;20.20;33.40;;;;;;5072756;28;20020;-59
2021/03/19 00:10:39;;;;;;;4.20;1.17;;;20.20;33.40;;;;;;5072873;28;20085;-60
2021/03/19 00:13:10;;;;;;;2.40;0.70;;;20.20;33.40;;;;;;5073190;28;20028;-59
2021/03/19 00:15:37;;;;;;;2.85;1.02;;;20.20;33.40;;;;;;5073510;28;20457;-59
2021/03/19 00:18:04;;;;;;;2.78;1.00;;;20.20;33.40;;;;;;5072698;28;20036;-59
2021/03/19 00:20:32;;;;;;;3.47;1.08;;;20.20;33.40;;;;;;5073251;28;20028;-59
2021/03/19 00:22:58;;;;;;;2.85;0.93;;;20.20;33.40;;;;;;5072956;28;20357;-59
2021/03/19 00:25:24;;;;;;;3.22;1.13;;;20.10;33.40;;;;;;5072813;28;20028;-60
2021/03/19 00:27:49;;;;;;;2.33;1.00;;;20.20;33.40;;;;;;5073010;28;20036;-60
2021/03/19 00:30:15;;;;;;;1.77;0.70;;;20.20;33.40;;;;;;5072834;28;20027;-60
2021/03/19 00:32:43;;;;;;;2.42;0.90;;;20.10;33.40;;;;;;5072918;28;20025;-60
2021/03/19 00:35:10;;;;;;;2.58;1.00;;;20.10;33.40;;;;;;5072974;28;20107;-60
2021/03/19 00:37:36;;;;;;;3.20;1.20;;;20.10;33.40;;;;;;5073575;28;20033;-59
2021/03/19 00:40:07;;;;;;;3.28;0.90;;;20.10;33.40;;;;;;5073873;28;20031;-59
2021/03/19 00:42:33;;;;;;;2.78;0.73;;;20.10;33.30;;;;;;5073079;28;20078;-60
2021/03/19 00:44:58;;;;;;;4.43;1.35;;;20.10;33.30;;;;;;5072832;28;20017;-60
2021/03/19 00:47:24;;;;;;;2.55;0.60;;;20.10;33.30;;;;;;5073038;28;20070;-59
2021/03/19 00:49:49;;;;;;;5.93;1.27;;;20.00;33.30;;;;;;5073086;28;20025;-59
2021/03/19 00:52:15;;;;;;;3.20;1.00;;;20.10;33.30;;;;;;5071720;28;20028;-59
2021/03/19 00:54:40;;;;;;;2.13;0.90;;;20.00;33.40;;;;;;5074106;28;20025;-59
2021/03/19 00:57:06;;;;;;;2.03;0.90;;;20.00;33.30;;;;;;5072892;28;20028;-59
2021/03/19 00:59:31;;;;;;;1.92;0.77;;;20.00;33.40;;;;;;5072639;28;20017;-60
2021/03/19 01:01:58;;;;;;;2.40;0.80;;;20.00;33.30;;;;;;5074785;28;20157;-59
2021/03/19 01:04:23;;;;;;;2.65;0.90;;;20.00;33.40;;;;;;5076526;28;20032;-59
2021/03/19 01:06:49;;;;;;;2.78;0.80;;;20.00;33.30;;;;;;5076378;28;20025;-59
2021/03/19 01:09:15;;;;;;;2.40;0.85;;;20.00;33.30;;;;;;5075993;28;20032;-60
2021/03/19 01:11:40;;;;;;;2.05;0.90;;;20.00;33.30;;;;;;5076095;28;20036;-59
2021/03/19 01:14:06;;;;;;;3.60;1.10;;;20.00;33.30;;;;;;5076000;28;20476;-60
2021/03/19 01:16:34;;;;;;;2.70;0.98;;;20.00;33.30;;;;;;5076227;28;20020;-59
2021/03/19 01:18:59;;;;;;;2.13;0.90;;;20.00;33.20;;;;;;5075996;28;20065;-59
2021/03/19 01:21:25;;;;;;;4.25;1.15;;;20.00;33.30;;;;;;5075905;28;20021;-59
2021/03/19 01:23:51;;;;;;;3.35;1.00;;;20.00;33.20;;;;;;5076036;28;20020;-60
2021/03/19 01:26:16;;;;;;;2.72;0.80;;;20.00;33.20;;;;;;5075873;28;20058;-59
2021/03/19 01:28:45;;;;;;;1.95;0.80;;;19.90;33.20;;;;;;5075339;28;20033;-59
2021/03/19 01:31:11;;;;;;;2.50;0.85;;;19.90;33.30;;;;;;5074752;28;20021;-59
2021/03/19 01:33:37;;;;;;;1.40;0.70;;;19.90;33.20;;;;;;5075883;28;20431;-59
2021/03/19 01:36:06;;;;;;;2.13;0.73;;;19.90;33.20;;;;;;5075900;28;20025;-60
2021/03/19 01:38:37;;;;;;;3.25;1.02;;;19.90;33.20;;;;;;5076009;28;20020;-59
2021/03/19 01:41:03;;;;;;;4.18;0.77;;;19.90;33.20;;;;;;5075461;28;20025;-59
2021/03/19 01:43:46;;;;;;;1.88;0.80;;;19.90;33.20;;;;;;5075442;28;20032;-59
2021/03/19 01:46:49;;;;;;;1.98;0.80;;;19.90;33.20;;;;;;5075343;28;20024;-61
2021/03/19 01:49:52;;;;;;;3.17;1.25;;;19.90;33.20;;;;;;5075573;28;20032;-59
2021/03/19 01:52:55;;;;;;;3.63;1.00;;;19.80;33.20;;;;;;5075639;28;20020;-59
2021/03/19 01:55:58;;;;;;;3.25;0.90;;;19.80;33.20;;;;;;5075414;28;20146;-59
2021/03/19 01:59:00;;;;;;;1.70;0.77;;;19.80;33.10;;;;;;5075188;28;20060;-59
2021/03/19 02:02:03;;;;;;;2.58;0.90;;;19.80;33.10;;;;;;5075538;28;20029;-60
2021/03/19 02:05:07;;;;;;;2.17;0.75;;;19.90;33.10;;;;;;5073759;28;20147;-59
2021/03/19 02:08:10;;;;;;;2.80;0.80;;;19.80;33.10;;;;;;5075224;28;20021;-59
2021/03/19 02:11:12;;;;;;;1.98;0.88;;;19.80;33.10;;;;;;5075254;28;20034;-59
2021/03/19 02:14:15;;;;;;;2.03;0.93;;;19.80;33.10;;;;;;5074070;28;20083;-60
2021/03/19 02:17:18;;;;;;;2.78;1.08;;;19.80;33.10;;;;;;5074831;28;20078;-60
2021/03/19 02:20:21;;;;;;;3.47;1.00;;;19.80;33.10;;;;;;5073398;28;20132;-59
2021/03/19 02:23:24;;;;;;;3.80;0.98;;;19.80;33.10;;;;;;5074728;28;20039;-60
2021/03/19 02:26:27;;;;;;;2.10;0.93;;;19.70;33.00;;;;;;5074474;28;20035;-59
2021/03/19 02:29:30;;;;;;;3.17;1.08;;;19.70;33.00;;;;;;5075083;28;20031;-59
2021/03/19 02:32:28;;;;;;;3.40;1.27;;;19.70;33.00;;;;;;5075479;28;20030;-59
2021/03/19 02:34:58;;;;;;;2.80;1.20;;;19.70;33.00;;;;;;5071665;28;20098;-59
2021/03/19 02:37:27;;;;;;;2.55;0.90;;;19.70;32.90;;;;;;5074924;28;20050;-60
2021/03/19 02:39:53;;;;;;;4.00;1.08;;;19.70;32.90;;;;;;5074850;28;20029;-59
2021/03/19 02:42:21;;;;;;;4.82;1.20;;;19.60;32.90;;;;;;5075220;28;20024;-59
2021/03/19 02:44:47;;;;;;;3.75;1.25;;;19.70;32.90;;;;;;5074708;28;20508;-60
2021/03/19 02:47:13;;;;;;;2.65;1.05;;;19.60;32.90;;;;;;5074573;28;20119;-59
2021/03/19 02:49:39;;;;;;;3.33;1.02;;;19.60;32.90;;;;;;5075133;28;20032;-59
2021/03/19 02:52:05;;;;;;;2.72;0.88;;;19.60;32.90;;;;;;5082037;28;20414;-59
2021/03/19 02:54:31;;;;;;;2.95;1.02;;;19.60;32.90;;;;;;5084001;28;20028;-58
2021/03/19 02:56:56;;;;;;;2.95;1.02;;;19.60;32.80;;;;;;5078773;28;20043;-58
2021/03/19 02:59:22;;;;;;;4.97;1.00;;;19.60;32.80;;;;;;5073580;28;20055;-61
2021/03/19 03:01:48;;;;;;;2.40;0.95;;;19.60;32.80;;;;;;5074290;28;20472;-60
2021/03/19 03:04:14;;;;;;;2.25;0.88;;;19.60;32.80;;;;;;5073855;28;20032;-58
2021/03/19 03:06:52;;;;;;;3.55;0.90;;;19.60;32.80;;;;;;5073766;28;20476;-58
2021/03/19 03:09:34;;;;;;;2.63;1.00;;;19.60;32.80;;;;;;5073904;28;20039;-58
2021/03/19 03:12:01;;;;;;;2.58;0.93;;;19.60;32.80;;;;;;5074147;28;20032;-58
2021/03/19 03:14:29;;;;;;;2.60;1.00;;;19.50;32.70;;;;;;5073920;28;20043;-58
2021/03/19 03:17:00;;;;;;;3.80;1.15;;;19.50;32.70;;;;;;5073864;28;20071;-59
2021/03/19 03:19:26;;;;;;;1.80;0.88;;;19.50;32.80;;;;;;5073347;28;20094;-58
2021/03/19 03:21:52;;;;;;;3.38;1.10;;;19.50;32.80;;;;;;5074972;28;20032;-58
2021/03/19 03:24:19;;;;;;;3.92;1.08;;;19.50;32.70;;;;;;5073331;28;20039;-59
2021/03/19 03:26:44;;;;;;;2.45;1.00;;;19.50;32.70;;;;;;5073882;28;20029;-59
2021/03/19 03:29:12;;;;;;;2.30;1.00;;;19.50;32.70;;;;;;5073733;28;20082;-59
2021/03/19 03:31:39;;;;;;;2.75;1.00;;;19.50;32.70;;;;;;5074007;28;20028;-59
2021/03/19 03:34:06;;;;;;;1.27;0.70;;;19.50;32.70;;;;;;5075429;28;20037;-59
2021/03/19 03:36:33;;;;;;;2.28;0.93;;;19.50;32.70;;;;;;5078146;28;20476;-59
2021/03/19 03:38:59;;;;;;;2.40;0.82;;;19.50;32.70;;;;;;5075941;28;20032;-60
2021/03/19 03:41:26;;;;;;;3.00;1.00;;;19.50;32.70;;;;;;5078922;28;20031;-59
2021/03/19 03:43:52;;;;;;;3.60;1.00;;;19.50;32.70;;;;;;5073806;28;20035;-59
2021/03/19 03:46:21;;;;;;;3.35;1.58;;;19.50;32.60;;;;;;5073227;28;20468;-59
2021/03/19 03:48:47;;;;;;;3.40;1.30;;;19.50;32.70;;;;;;5073564;28;20058;-59
2021/03/19 03:51:13;;;;;;;4.50;1.17;;;19.50;32.60;;;;;;5073376;28;20025;-59
2021/03/19 03:53:40;;;;;;;2.22;0.90;;;19.50;32.60;;;;;;5073491;28;20052;-59
2021/03/19 03:56:11;;;;;;;3.53;1.20;;;19.50;32.60;;;;;;5073042;28;20419;-59
2021/03/19 03:58:38;;;;;;;2.40;1.20;;;19.40;32.60;;;;;;5073416;28;20037;-59
2021/03/19 04:01:04;;;;;;;2.70;1.00;;;19.50;32.60;;;;;;5073748;28;20456;-59
2021/03/19 04:03:30;;;;;;;4.70;1.17;;;19.40;32.60;;;;;;5073642;28;20074;-59
2021/03/19 04:05:56;;;;;;;2.92;1.13;;;19.50;32.50;;;;;;5073678;28;20025;-58
2021/03/19 04:08:24;;;;;;;2.78;1.17;;;19.40;32.50;;;;;;5073455;28;20384;-58
2021/03/19 04:10:52;;;;;;;2.85;1.02;;;19.40;32.50;;;;;;5073933;28;20028;-58
2021/03/19 04:13:19;;;;;;;1.88;1.00;;;19.40;32.50;;;;;;5073765;28;20020;-58
2021/03/19 04:15:45;;;;;;;1.98;0.73;;;19.40;32.50;;;;;;5074532;28;20111;-58
2021/03/19 04:18:13;;;;;;;3.47;1.13;;;19.40;32.50;;;;;;5077767;28;20469;-58
2021/03/19 04:20:40;;;;;;;3.58;1.00;;;19.40;32.50;;;;;;5075300;28;20112;-59
2021/03/19 04:23:07;;;;;;;2.85;1.10;;;19.40;32.50;;;;;;5073478;28;20027;-59
2021/03/19 04:25:33;;;;;;;3.28;1.10;;;19.40;32.50;;;;;;5072712;28;20017;-58
2021/03/19 04:28:03;;;;;;;3.05;1.10;;;19.30;32.40;;;;;;5073200;28;20024;-59
2021/03/19 04:30:32;;;;;;;3.42;1.17;;;19.30;32.50;;;;;;5073087;28;20033;-59
2021/03/19 04:33:00;;;;;;;2.95;1.02;;;19.30;32.40;;;;;;5073360;28;20049;-59
2021/03/19 04:35:28;;;;;;;2.95;0.98;;;19.30;32.40;;;;;;5073362;28;20032;-59
2021/03/19 04:37:57;;;;;;;2.88;1.02;;;19.30;32.40;;;;;;5076606;28;20455;-59
2021/03/19 04:40:23;;;;;;;1.75;0.82;;;19.30;32.50;;;;;;5077201;28;20421;-59
2021/03/19 04:42:49;;;;;;;3.53;1.00;;;19.30;32.40;;;;;;5076850;28;20106;-59
2021/03/19 04:45:15;;;;;;;3.78;1.58;;;19.30;32.40;;;;;;5076783;28;20456;-59
2021/03/19 04:47:41;;;;;;;1.58;0.90;;;19.30;32.50;;;;;;5076634;28;20461;-58
2021/03/19 04:50:08;;;;;;;2.63;1.00;;;19.30;32.40;;;;;;5076667;28;20035;-59
2021/03/19 04:52:34;;;;;;;2.20;0.90;;;19.30;32.40;;;;;;5076399;28;20078;-59
2021/03/19 04:55:00;;;;;;;1.60;0.88;;;19.30;32.40;;;;;;5076331;28;20033;-59
2021/03/19 04:57:26;;;;;;;1.80;0.77;;;19.30;32.40;;;;;;5076420;28;20112;-59
2021/03/19 04:59:52;;;;;;;2.22;1.00;;;19.30;32.40;;;;;;5076394;28;20051;-59
2021/03/19 05:02:28;;;;;;;3.60;1.10;;;19.30;32.40;;;;;;5076735;28;20024;-59
2021/03/19 05:04:54;;;;;;;3.60;1.10;;;19.30;32.40;;;;;;5076792;28;20059;-59
2021/03/19 05:07:19;;;;;;;2.50;0.80;;;19.30;32.40;;;;;;5076656;28;20028;-59
2021/03/19 05:09:45;;;;;;;1.73;0.93;;;19.20;32.30;;;;;;5076006;28;20024;-59
2021/03/19 05:12:10;;;;;;;2.40;0.80;;;19.30;32.40;;;;;;5074735;28;20028;-59
2021/03/19 05:14:36;;;;;;;3.35;1.02;;;19.20;32.30;;;;;;5076046;28;20491;-58
2021/03/19 05:17:02;;;;;;;2.95;1.05;;;19.30;32.30;;;;;;5076317;28;20032;-59
2021/03/19 05:19:27;;;;;;;2.80;0.95;;;19.30;32.30;;;;;;5075912;28;20052;-59
2021/03/19 05:21:53;;;;;;;2.38;0.90;;;19.30;32.30;;;;;;5076231;28;20468;-59
2021/03/19 05:24:18;;;;;;;3.72;1.10;;;19.40;32.30;;;;;;5077145;28;20028;-59
2021/03/19 05:26:44;;;;;;;1.90;0.93;;;19.40;32.20;;;;;;5077715;28;20040;-59
2021/03/19 05:29:11;;;;;;;4.50;1.25;;;19.40;32.10;;;;;;5078358;28;20071;-59
2021/03/19 05:31:37;;;;;;;3.15;0.80;;;19.50;32.20;;;;;;5078522;28;20472;-58
2021/03/19 05:34:03;;;;;;;1.25;0.77;;;19.50;32.10;;;;;;5076544;28;20043;-58
2021/03/19 05:36:31;;;;;;;2.10;0.85;;;19.50;32.10;;;;;;5076825;28;20033;-59
2021/03/19 05:38:57;;;;;;;2.38;1.08;;;19.50;32.00;;;;;;5077379;28;20035;-59
2021/03/19 05:41:27;;;;;;;2.55;0.98;;;19.50;32.00;;;;;;5076339;28;20380;-58
2021/03/19 05:43:58;;;;;;;2.80;0.90;;;19.50;32.00;;;;;;5075994;28;20109;-58
2021/03/19 05:46:36;;;;;;;2.42;1.08;;;19.50;31.90;;;;;;5076227;28;20021;-59
2021/03/19 05:49:23;;;;;;;2.65;0.68;;;19.60;32.00;;;;;;5074701;28;20036;-59
2021/03/19 05:52:00;;;;;;;1.40;0.75;;;19.60;31.90;;;;;;5075506;28;20025;-58
2021/03/19 05:54:33;;;;;;;1.65;0.70;;;19.60;31.80;;;;;;5075506;28;20500;-59
2021/03/19 05:57:07;;;;;;;2.63;0.97;;;19.60;31.80;;;;;;5075430;28;20043;-59
2021/03/19 05:59:54;;;;;;;4.53;1.05;;;19.70;31.80;;;;;;5075443;28;20021;-59
2021/03/19 06:02:37;;;;;;;2.83;0.88;;;19.70;31.70;;;;;;5075176;28;20032;-59
2021/03/19 06:05:14;;;;;;;1.40;0.77;;;19.70;31.70;;;;;;5075478;28;20024;-59
2021/03/19 06:07:53;;;;;;;2.15;0.90;;;19.70;31.80;;;;;;5075930;28;20137;-59
2021/03/19 06:10:39;;;;;;;4.63;1.17;;;19.70;31.80;;;;;;5078309;28;20025;-59
2021/03/19 06:13:21;;;;;;;3.97;1.00;;;19.80;31.70;;;;;;5074975;28;20021;-59
2021/03/19 06:16:18;;;;;;;3.08;0.98;;;19.80;31.80;;;;;;5074943;28;20229;-59
2021/03/19 06:18:49;;;;;;;2.03;0.70;;;19.80;31.70;;;;;;5074764;28;20068;-60
2021/03/19 06:21:36;;;;;;;2.53;0.80;;;19.80;31.60;;;;;;5074613;28;20024;-59
2021/03/19 06:24:20;;;;;;;2.97;0.90;;;19.80;31.60;;;;;;5074642;28;20384;-59
2021/03/19 06:26:47;;;;;;;2.60;0.70;;;19.80;31.70;;;;;;5075052;28;20432;-59
2021/03/19 06:29:26;;;;;;;2.22;0.90;;;19.80;31.60;;;;;;5075345;28;20024;-59
2021/03/19 06:32:12;;;;;;;2.03;0.80;;;19.80;31.50;;;;;;5074620;28;20024;-59
2021/03/19 06:35:00;;;;;;;2.55;0.90;;;19.90;31.40;;;;;;5074245;28;20028;-59
2021/03/19 06:37:36;;;;;;;1.77;0.70;;;19.90;31.50;;;;;;5073248;28;20037;-59
2021/03/19 06:40:31;;;;;;;3.00;0.75;;;19.90;31.40;;;;;;5074501;28;20385;-59
2021/03/19 06:43:19;;;;;;;;;;;19.90;31.50;;;;;;5074926;28;20491;-59
2021/03/19 06:45:47;;;;;;;3.50;0.75;;;19.90;31.50;;;;;;5074357;28;20380;-59
2021/03/19 06:49:02;;;;;;;1.85;0.75;;;20.00;31.40;;;;;;5074495;28;20071;-58
2021/03/19 06:51:33;;;;;;;2.17;0.95;;;19.90;31.30;;;;;;5070380;28;20055;-59
2021/03/19 06:54:12;;;;;;;2.47;0.80;;;19.90;31.30;;;;;;5072808;28;20052;-58
2021/03/19 06:56:40;;;;;;;3.20;0.93;;;20.00;31.30;;;;;;5074445;28;20445;-58
2021/03/19 06:59:24;;;;;;;2.38;0.68;;;20.00;31.30;;;;;;5073610;28;20465;-58
2021/03/19 07:01:50;;;;;;;1.23;0.70;;;20.00;31.30;;;;;;5073867;28;20035;-58
2021/03/19 07:04:32;;;;;;;1.80;0.77;;;20.00;31.10;;;;;;5073807;28;20032;-59
2021/03/19 07:07:03;;;;;;;1.42;0.80;;;20.00;31.30;;;;;;5073987;28;20032;-58
2021/03/19 07:10:20;;;;;;;1.75;0.70;;;20.00;31.30;;;;;;5074029;28;20395;-59
2021/03/19 07:13:05;;;;;;;1.52;0.80;;;20.00;31.20;;;;;;5029269;28;20029;-58
2021/03/19 07:15:53;;;;;;;2.90;0.85;;;20.00;31.20;;;;;;5073848;28;20540;-59
2021/03/19 07:19:00;;;;;;;1.75;0.68;;;20.10;31.20;;;;;;5073631;28;20052;-58
2021/03/19 07:21:58;;;;;;;3.05;0.70;;;20.10;31.10;;;;;;5062864;28;20036;-58
2021/03/19 07:24:29;;;;;;;1.55;0.80;;;20.10;31.20;;;;;;5073711;28;20016;-58
2021/03/19 07:27:00;;;;;;;2.38;0.98;;;20.10;31.10;;;;;;5073524;28;20074;-59
2021/03/19 07:29:51;;;;;;;1.50;0.57;;;20.20;31.20;;;;;;5073624;28;20048;-59
2021/03/19 07:32:48;;;;;;;2.20;0.52;;;20.20;31.10;;;;;;5073340;28;20056;-59
2021/03/19 07:35:35;;;;;;;2.08;0.70;;;20.20;31.10;;;;;;5073771;28;20024;-60
2021/03/19 07:38:33;;;;;;;2.63;0.80;;;20.20;31.10;;;;;;5073367;28;20062;-61
2021/03/19 07:41:03;;;;;;;2.08;0.80;;;20.20;31.00;;;;;;5073815;28;20400;-58
2021/03/19 07:43:28;;;;;;;3.10;0.80;;;20.30;31.00;;;;;;5073386;28;20035;-59
2021/03/19 07:46:02;;;;;;;1.88;0.68;;;20.30;31.00;;;;;;5073339;28;20017;-59
2021/03/19 07:48:48;;;;;;;2.63;0.80;;;20.30;30.90;;;;;;5073498;28;20111;-59
2021/03/19 07:51:19;;;;;;;1.88;0.77;;;20.30;30.90;;;;;;5073238;28;20017;-59
2021/03/19 07:54:00;;;;;;;1.33;0.80;;;20.40;30.90;;;;;;5073293;28;20036;-59
2021/03/19 07:56:53;;;;;;;1.58;0.60;;;20.40;31.00;;;;;;5072922;28;20024;-59
2021/03/19 07:59:35;;;;;;;2.88;0.75;;;20.40;30.90;;;;;;5072999;28;20025;-58
2021/03/19 08:02:13;;;;;;;1.25;0.70;;;20.40;30.80;;;;;;5073533;28;20036;-58
2021/03/19 08:04:44;;;;;;;2.30;0.80;;;20.40;30.90;;;;;;5073712;28;20059;-59
2021/03/19 08:07:24;;;;;;;2.05;0.80;;;20.40;30.80;;;;;;5077620;28;20021;-58
2021/03/19 08:10:03;;;;;;;2.17;0.88;;;20.40;30.80;;;;;;5081063;28;20028;-59
2021/03/19 08:12:48;;;;;;;1.67;0.57;;;20.50;30.70;;;;;;5083572;28;20384;-59
2021/03/19 08:15:23;;;;;;;1.60;1.00;;;20.50;30.80;;;;;;5083699;28;20035;-58
2021/03/19 08:18:07;;;;;;;1.92;0.75;;;20.50;30.80;;;;;;5078120;28;20040;-58
2021/03/19 08:20:56;;;;;;;1.77;0.77;;;20.50;30.70;;;;;;5077634;28;20511;-59
2021/03/19 08:23:33;;;;;;;1.95;0.80;;;20.60;30.70;;;;;;5076983;28;20029;-59
2021/03/19 08:25:58;;;;;;;1.65;0.70;;;20.50;30.70;;;;;;5076627;28;20036;-58
2021/03/19 08:28:44;;;;;;;1.88;0.80;;;20.60;30.60;;;;;;5076823;28;20028;-59
2021/03/19 08:31:37;;;;;;;1.67;0.82;;;20.60;30.60;;;;;;5076605;28;20472;-58
2021/03/19 08:34:12;;;;;;;2.22;0.70;;;20.60;30.70;;;;;;5077318;28;20146;-59
2021/03/19 08:36:45;;;;;;;2.65;1.02;;;20.60;30.60;;;;;;5076623;28;20032;-59
2021/03/19 08:39:35;;;;;;;1.77;0.80;;;20.60;30.60;;;;;;5075460;28;20499;-59
2021/03/19 08:42:05;;;;;;;1.67;0.60;;;20.60;30.40;;;;;;5076998;28;20036;-60
2021/03/19 08:44:37;;;;;;;2.03;0.50;;;20.60;30.50;;;;;;5076382;28;20357;-59
2021/03/19 08:47:25;;;;;;;1.60;0.60;;;20.60;30.40;;;;;;5076531;28;20017;-59
2021/03/19 08:49:56;;;;;;;1.88;0.70;;;20.60;30.50;;;;;;5076683;28;20032;-58
2021/03/19 08:52:27;;;;;;;2.20;0.77;;;20.60;30.40;;;;;;5076560;28;20463;-59
2021/03/19 08:55:17;;;;;;;1.60;0.55;;;20.60;30.30;;;;;;5076454;28;20021;-59
2021/03/19 08:57:55;;;;;;;1.58;0.70;;;20.60;30.40;;;;;;5076225;28;20396;-60
2021/03/19 09:00:21;;;;;;;2.92;0.68;;;20.70;30.40;;;;;;5076463;28;20024;-59
2021/03/19 09:02:55;;;;;;;2.13;1.30;;;20.60;30.40;;;;;;5076398;28;20028;-60
2021/03/19 09:05:34;;;;;;;1.85;0.73;;;20.70;30.40;;;;;;5076301;28;20020;-58
2021/03/19 09:08:16;;;;;;;1.08;0.60;;;20.70;30.30;;;;;;5076146;28;20025;-60
2021/03/19 09:10:42;;;;;;;1.23;0.50;;;20.70;30.20;;;;;;5074826;28;20048;-60
2021/03/19 09:13:08;;;;;;;2.50;0.82;;;20.70;30.20;;;;;;5075869;28;20119;-59
2021/03/19 09:15:36;;;;;;;1.45;0.70;;;20.70;30.40;;;;;;5075750;28;20051;-60
2021/03/19 09:18:04;;;;;;;1.27;0.60;;;20.70;30.20;;;;;;5075512;28;20062;-58
2021/03/19 09:20:41;;;;;;;4.43;0.57;;;20.70;30.20;;;;;;5075901;28;20028;-58
2021/03/19 09:23:10;;;;;;;1.63;0.73;;;20.70;30.20;;;;;;5076028;28;20074;-59
2021/03/19 09:25:38;;;;;;;2.10;0.70;;;20.70;30.20;;;;;;5075997;28;20123;-58
2021/03/19 09:28:18;;;;;;;1.63;0.80;;;20.70;30.10;;;;;;5076389;28;20027;-58
2021/03/19 09:31:01;;;;;;;2.42;0.68;;;20.80;30.10;;;;;;5075921;28;20477;-58
2021/03/19 09:33:45;;;;;;;1.95;0.60;;;20.80;30.00;;;;;;5075943;28;20021;-58
2021/03/19 09:36:48;;;;;;;1.57;0.50;;;20.80;30.20;;;;;;5075443;28;20385;-58
2021/03/19 09:39:52;;;;;;;1.92;0.60;;;20.80;30.00;;;;;;5075082;28;20027;-58
2021/03/19 09:42:17;;;;;;;1.38;0.70;;;20.80;30.00;;;;;;5074842;28;20024;-58
2021/03/19 09:44:48;;;;;;;2.03;0.70;;;20.90;30.10;;;;;;5074852;28;20115;-60
2021/03/19 09:47:22;;;;;;;2.80;0.68;;;20.80;30.10;;;;;;5074839;28;20027;-59
2021/03/19 09:50:01;;;;;;;1.13;0.40;;;20.90;30.00;;;;;;5074844;28;20115;-60
2021/03/19 09:52:27;;;;;;;2.83;1.00;;;20.90;29.80;;;;;;5075065;28;20031;-59
2021/03/19 09:54:52;;;;;;;1.05;0.60;;;20.90;29.80;;;;;;5075372;28;20387;-59
2021/03/19 09:57:21;;;;;;;2.05;0.60;;;20.90;29.90;;;;;;5075235;28;20157;-59
2021/03/19 10:00:07;;;;;;;3.15;0.77;;;21.00;29.80;;;;;;5074827;28;20028;-59
2021/03/19 10:02:42;;;;;;;1.67;0.65;;;21.00;29.80;;;;;;5074985;28;20028;-59
2021/03/19 10:05:33;;;;;;;1.10;0.52;;;21.00;30.00;;;;;;5075333;28;20027;-59
2021/03/19 10:08:00;;;;;;;1.67;0.50;;;21.00;29.90;;;;;;5075150;28;20032;-59
2021/03/19 10:10:34;;;;;;;0.93;0.60;;;21.00;29.70;;;;;;5075162;28;20031;-59
2021/03/19 10:13:22;;;;;;;0.90;0.50;;;21.00;29.80;;;;;;5075051;28;20056;-59
2021/03/19 10:15:53;;;;;;;2.65;1.08;;;21.00;29.60;;;;;;5074421;28;20024;-59
2021/03/19 10:18:33;;;;;;;3.17;0.60;;;21.00;29.50;;;;;;5075531;28;20075;-59
2021/03/19 10:21:07;;;;;;;1.40;0.68;;;21.00;29.50;;;;;;5074871;28;20123;-59
2021/03/19 10:23:36;;;;;;;2.10;0.60;;;21.10;29.50;;;;;;5074727;28;20032;-59
2021/03/19 10:26:31;;;;;;;1.15;0.50;;;21.10;29.60;;;;;;5074305;28;20037;-59
2021/03/19 10:29:06;;;;;;;2.20;1.10;;;21.10;29.70;;;;;;5074714;28;20031;-59
2021/03/19 10:31:40;;;;;;;2.03;0.60;;;21.20;29.50;;;;;;5074444;28;20021;-59
2021/03/19 10:34:20;;;;;;;2.22;0.60;;;21.20;29.50;;;;;;5073563;28;20044;-59
2021/03/19 10:36:56;;;;;;;1.60;0.52;;;21.20;29.60;;;;;;5074263;28;20037;-59
2021/03/19 10:39:52;;;;;;;1.83;0.70;;;21.20;29.30;;;;;;5074327;28;20500;-60
2021/03/19 10:42:50;;;;;;;1.55;0.60;;;21.20;29.40;;;;;;5074309;28;20109;-59
2021/03/19 10:45:28;;;;;;;0.77;0.60;;;21.30;29.40;;;;;;5074177;28;20029;-59
2021/03/19 10:48:08;;;;;;;1.70;0.55;;;21.30;29.30;;;;;;5074130;28;20024;-59
2021/03/19 10:50:45;;;;;;;1.15;0.40;;;21.30;29.20;;;;;;5074050;28;20079;-59
2021/03/19 10:53:17;;;;;;;1.25;0.60;;;21.40;29.20;;;;;;5074048;28;20517;-59
2021/03/19 10:55:48;;;;;;;1.17;0.50;;;21.40;29.00;;;;;;5073971;28;20024;-59
2021/03/19 10:58:31;;;;;;;1.75;0.50;;;21.40;29.10;;;;;;5073652;28;20036;-59
2021/03/19 11:00:57;;;;;;;0.90;0.47;;;21.40;29.20;;;;;;5072467;28;20054;-59
2021/03/19 11:03:31;;;;;;;2.85;0.90;;;21.40;28.90;;;;;;5073711;28;20025;-59
2021/03/19 11:06:06;;;;;;;0.93;0.32;;;21.40;28.90;;;;;;5073605;28;20032;-60
2021/03/19 11:08:32;;;;;;;1.20;0.50;;;21.50;29.00;;;;;;5074083;28;20111;-59
2021/03/19 11:10:58;;;;;;;2.40;0.60;;;21.50;29.10;;;;;;5073857;28;20557;-59
2021/03/19 11:13:29;;;;;;;2.28;0.70;;;21.50;29.10;;;;;;5073626;28;20154;-60
2021/03/19 11:16:02;;;;;;;1.52;0.52;;;21.50;28.90;;;;;;5073984;28;20024;-60
2021/03/19 11:18:36;;;;;;;2.47;0.70;;;21.60;28.90;;;;;;5074079;28;20131;-59
2021/03/19 11:21:08;;;;;;;0.95;0.47;;;21.60;28.80;;;;;;5073772;28;20056;-59
2021/03/19 11:23:48;;;;;;;1.02;0.55;;;21.60;28.90;;;;;;5073567;28;20047;-60
2021/03/19 11:26:30;;;;;;;1.42;0.60;;;21.70;28.70;;;;;;5073256;28;20063;-59
2021/03/19 11:29:08;;;;;;;1.00;0.50;;;21.70;28.70;;;;;;5073556;28;20357;-60
2021/03/19 11:31:34;;;;;;;2.30;0.73;;;21.70;28.70;;;;;;5073793;28;20060;-60
2021/03/19 11:34:28;;;;;;;1.75;0.52;;;21.80;28.70;;;;;;5073424;28;20537;-60
2021/03/19 11:37:02;;;;;;;0.52;0.30;;;21.70;28.70;;;;;;5073598;28;20074;-59
2021/03/19 11:40:07;;;;;;;0.85;0.43;;;21.80;28.60;;;;;;5073330;28;20029;-59
2021/03/19 11:42:46;;;;;;;0.47;0.32;;;21.90;28.60;;;;;;5073356;28;20020;-59
2021/03/19 11:45:18;;;;;;;1.55;0.60;;;21.90;28.60;;;;;;5073289;28;20024;-59
2021/03/19 11:48:06;;;;;;;2.13;0.57;;;21.80;28.80;;;;;;5073145;28;20056;-59
2021/03/19 11:50:35;;;;;;;3.55;0.65;;;21.80;28.70;;;;;;5073004;28;20049;-59
2021/03/19 11:53:11;;;;;;;1.35;0.52;;;21.90;28.40;;;;;;5072674;28;20036;-59
2021/03/19 11:55:38;;;;;;;1.67;0.70;;;21.90;28.50;;;;;;5072619;28;20028;-60
2021/03/19 11:58:05;;;;;;;0.85;0.40;;;22.00;28.50;;;;;;5072291;28;20115;-59
2021/03/19 12:00:32;;;;;;;0.40;0.32;;;22.00;28.50;;;;;;5073322;28;20294;-58
2021/03/19 12:03:02;;;;;;;0.47;0.32;;;22.00;28.40;;;;;;5073129;28;20036;-60
2021/03/19 12:05:29;;;;;;;0.98;0.38;;;22.00;28.40;;;;;;5073457;28;20024;-58
2021/03/19 12:07:55;;;;;;;1.02;0.50;;;22.00;28.40;;;;;;5073563;28;20111;-58
2021/03/19 12:10:27;;;;;;;0.90;0.45;;;22.00;28.40;;;;;;5073338;28;20120;-59
2021/03/19 12:12:53;;;;;;;1.13;0.40;;;22.00;28.40;;;;;;5073150;28;20036;-58
2021/03/19 12:15:19;;;;;;;1.52;0.60;;;21.90;28.40;;;;;;5073150;28;20461;-58
2021/03/19 12:17:46;;;;;;;1.38;0.50;;;22.00;28.40;;;;;;5074252;28;20043;-58
2021/03/19 12:20:13;;;;;;;0.93;0.40;;;21.90;28.50;;;;;;5075053;28;20044;-58
2021/03/19 12:22:40;;;;;;;2.03;0.80;;;21.80;28.40;;;;;;5074270;28;20087;-58
2021/03/19 12:25:26;;;;;;;2.42;0.60;;;22.00;28.30;;;;;;5075431;28;20404;-58
2021/03/19 12:27:52;;;;;;;1.08;0.40;;;22.00;28.30;;;;;;5072726;28;20071;-58
2021/03/19 12:30:19;;;;;;;0.95;0.55;;;22.10;28.20;;;;;;5074234;28;20028;-59
2021/03/19 12:32:46;;;;;;;1.85;0.50;;;22.10;28.10;;;;;;5073366;28;20422;-59
2021/03/19 12:35:12;;;;;;;0.93;0.45;;;22.20;28.10;;;;;;5074037;28;20028;-58
2021/03/19 12:37:38;;;;;;;0.80;0.40;;;22.10;28.20;;;;;;5074386;28;20033;-58
2021/03/19 12:40:05;;;;;;;0.80;0.47;;;22.10;28.00;;;;;;5074197;28;20028;-58
2021/03/19 12:42:31;;;;;;;0.82;0.40;;;22.10;28.10;;;;;;5074192;28;20025;-58
2021/03/19 12:44:57;;;;;;;0.40;0.38;;;22.20;27.90;;;;;;5074510;28;20017;-58
2021/03/19 12:47:22;;;;;;;1.15;0.50;;;22.20;27.80;;;;;;5074444;28;20150;-58
2021/03/19 12:49:48;;;;;;;1.17;0.43;;;22.20;27.80;;;;;;5075244;28;20490;-58
2021/03/19 12:52:13;;;;;;;1.85;0.43;;;22.10;28.00;;;;;;5077091;28;20098;-59
2021/03/19 12:54:39;;;;;;;0.93;0.40;;;22.20;27.90;;;;;;5080664;28;20032;-59
2021/03/19 12:57:05;;;;;;;1.15;0.50;;;22.20;27.60;;;;;;5073753;28;20086;-59
2021/03/19 12:59:30;;;;;;;0.30;0.20;;;22.20;27.70;;;;;;5077715;28;20116;-59
2021/03/19 13:01:57;;;;;;;1.50;0.30;;;22.30;27.80;;;;;;5077692;28;20027;-59
2021/03/19 13:04:23;;;;;;;0.93;0.50;;;22.20;27.70;;;;;;5077221;28;20103;-59
2021/03/19 13:06:50;;;;;;;1.08;0.47;;;22.20;27.80;;;;;;5076482;28;20096;-59
2021/03/19 13:09:15;;;;;;;1.40;0.40;;;22.10;27.80;;;;;;5076708;28;20040;-59
2021/03/19 13:11:41;;;;;;;0.50;0.30;;;22.00;27.80;;;;;;5076482;28;20020;-58
2021/03/19 13:14:07;;;;;;;1.38;0.35;;;22.00;28.00;;;;;;5076478;28;20040;-60
2021/03/19 13:16:34;;;;;;;1.25;0.50;;;22.00;27.90;;;;;;5076683;28;20031;-59
2021/03/19 13:19:01;;;;;;;1.00;0.43;;;21.90;28.00;;;;;;5079726;28;20080;-59
2021/03/19 13:21:27;;;;;;;1.10;0.40;;;22.00;27.90;;;;;;5076116;28;20457;-59
2021/03/19 13:23:53;;;;;;;0.80;0.30;;;21.90;27.90;;;;;;5077838;28;20025;-59